Time;durP1;ratioP1;P1;durP2;ratioP2;P2;SDS_P1;SDS_P2;PMS_P1;PMS_P2;Temp;Humidity;BMP_temperature;BMP_pressure;BME280_temperature;BME280_humidity;BME280_pressure;Samples;Min_cycle;Max_cycle;Signal;HPM_P1;HPM_P2
2022/06/19 00:00:08;;;;;;;8.15;1.50;;;15.10;99.90;;;;;;6149965;23;20340;-76
2022/06/19 00:02:35;;;;;;;12.82;2.00;;;15.10;99.90;;;;;;6146751;23;20013;-76
2022/06/19 00:05:01;;;;;;;9.23;1.33;;;15.10;99.90;;;;;;6150125;23;20104;-76
2022/06/19 00:07:27;;;;;;;13.50;1.92;;;15.00;99.90;;;;;;6148748;23;20065;-76
2022/06/19 00:09:53;;;;;;;7.35;1.55;;;15.00;99.90;;;;;;6150339;23;20009;-76
2022/06/19 00:12:19;;;;;;;7.45;1.27;;;15.00;99.90;;;;;;6150368;23;20088;-76
2022/06/19 00:14:45;;;;;;;6.50;1.73;;;15.00;99.90;;;;;;6152100;23;20049;-76
2022/06/19 00:17:13;;;;;;;8.73;1.48;;;15.00;99.90;;;;;;6150796;23;20072;-75
2022/06/19 00:19:39;;;;;;;11.18;1.40;;;14.90;99.90;;;;;;6152331;23;20024;-76
2022/06/19 00:22:05;;;;;;;11.30;1.92;;;14.90;99.90;;;;;;6150789;23;20017;-76
2022/06/19 00:24:31;;;;;;;7.43;1.50;;;14.90;99.90;;;;;;6148669;23;20017;-75
2022/06/19 00:26:57;;;;;;;7.05;1.40;;;14.90;99.90;;;;;;6151050;23;20013;-75
2022/06/19 00:29:23;;;;;;;11.05;1.60;;;14.90;99.90;;;;;;6149100;23;20346;-75
2022/06/19 00:31:51;;;;;;;12.13;2.63;;;14.90;99.90;;;;;;6148307;23;20077;-75
2022/06/19 00:34:17;;;;;;;11.40;1.85;;;14.90;99.90;;;;;;6149751;23;20021;-75
2022/06/19 00:36:45;;;;;;;14.20;2.22;;;14.90;99.90;;;;;;6147555;23;20021;-77
2022/06/19 00:39:10;;;;;;;9.25;1.90;;;14.80;99.90;;;;;;6150476;23;20335;-75
2022/06/19 00:41:39;;;;;;;16.55;2.03;;;14.80;99.90;;;;;;6148112;23;20025;-75
2022/06/19 00:44:08;;;;;;;10.57;2.35;;;14.80;99.90;;;;;;6152925;23;20020;-75
2022/06/19 00:46:45;;;;;;;9.45;1.52;;;14.80;99.90;;;;;;6148833;23;20104;-75
2022/06/19 00:49:23;;;;;;;11.27;1.92;;;14.80;99.90;;;;;;6149305;23;20044;-78
2022/06/19 00:52:01;;;;;;;17.73;1.88;;;14.90;99.90;;;;;;6148950;23;20791;-78
2022/06/19 00:54:31;;;;;;;12.77;2.17;;;14.80;99.90;;;;;;6149845;23;20488;-77
2022/06/19 00:56:56;;;;;;;11.43;1.90;;;14.80;99.90;;;;;;6149482;23;20081;-75
2022/06/19 00:59:23;;;;;;;11.13;2.25;;;14.90;99.90;;;;;;6148911;23;20018;-75
2022/06/19 01:01:52;;;;;;;8.57;1.50;;;14.90;99.90;;;;;;6148521;23;20025;-75
2022/06/19 01:04:35;;;;;;;14.75;2.30;;;14.90;99.90;;;;;;6151284;23;20017;-75
2022/06/19 01:07:01;;;;;;;11.13;2.00;;;14.90;99.90;;;;;;6149833;23;20049;-78
2022/06/19 01:09:27;;;;;;;10.30;2.25;;;14.90;99.90;;;;;;6150751;23;20457;-75
2022/06/19 01:11:52;;;;;;;11.48;2.15;;;14.90;99.90;;;;;;6151338;23;20021;-75
2022/06/19 01:14:23;;;;;;;10.52;2.20;;;14.90;99.90;;;;;;6147518;23;20018;-75
2022/06/19 01:16:49;;;;;;;12.73;2.58;;;14.90;99.90;;;;;;6149517;23;20447;-76
2022/06/19 01:19:22;;;;;;;15.00;2.67;;;14.80;99.90;;;;;;6149332;23;20047;-76
2022/06/19 01:21:54;;;;;;;16.00;2.47;;;14.90;99.90;;;;;;6149845;23;20032;-79
2022/06/19 01:24:41;;;;;;;12.57;2.90;;;14.90;99.90;;;;;;6149281;23;20017;-76
2022/06/19 01:28:45;;;;;;;16.58;2.22;;;14.90;99.90;;;;;;6146937;23;20060;-79
2022/06/19 01:29:57;;;;;;;15.45;2.63;;;14.90;99.90;;;;;;6148363;23;20025;-78
2022/06/19 01:32:23;;;;;;;14.40;2.60;;;14.90;99.90;;;;;;6150915;23;20124;-78
2022/06/19 01:34:52;;;;;;;18.60;3.33;;;14.90;99.90;;;;;;6148049;23;20048;-76
2022/06/19 01:37:22;;;;;;;11.45;2.28;;;14.90;99.90;;;;;;6147342;23;20104;-76
2022/06/19 01:39:53;;;;;;;14.15;2.05;;;14.90;99.90;;;;;;6150738;23;20105;-76
2022/06/19 01:42:22;;;;;;;19.10;3.33;;;15.00;99.90;;;;;;6148807;23;20020;-76
2022/06/19 01:44:49;;;;;;;18.10;2.50;;;14.90;99.90;;;;;;6149125;23;20025;-76
2022/06/19 01:47:15;;;;;;;14.85;2.33;;;14.90;99.90;;;;;;6150119;23;20097;-76
2022/06/19 01:49:46;;;;;;;12.85;2.55;;;14.90;99.90;;;;;;6149852;23;20013;-75
2022/06/19 01:52:12;;;;;;;16.15;2.53;;;14.90;99.90;;;;;;6149591;23;20257;-76
2022/06/19 01:54:44;;;;;;;13.57;2.60;;;14.90;99.90;;;;;;6151244;23;20017;-76
2022/06/19 01:57:11;;;;;;;16.83;2.53;;;14.90;99.90;;;;;;6148182;23;20025;-77
2022/06/19 01:59:40;;;;;;;11.43;2.58;;;14.90;99.90;;;;;;6149608;23;20445;-76
2022/06/19 02:02:09;;;;;;;15.88;2.63;;;14.90;99.90;;;;;;6146784;23;20119;-76
2022/06/19 02:04:35;;;;;;;11.95;2.00;;;14.90;99.90;;;;;;6147383;23;20017;-75
2022/06/19 02:07:05;;;;;;;12.07;2.05;;;14.90;99.90;;;;;;6146520;23;20025;-76
2022/06/19 02:09:33;;;;;;;15.75;2.33;;;14.90;99.90;;;;;;6147989;23;20096;-78
2022/06/19 02:11:58;;;;;;;12.48;2.75;;;14.90;99.90;;;;;;6149810;23;20025;-77
2022/06/19 02:14:24;;;;;;;16.42;2.70;;;14.90;99.90;;;;;;6148470;23;20021;-78
2022/06/19 02:16:51;;;;;;;14.77;2.25;;;14.90;99.90;;;;;;6149438;23;20025;-76
2022/06/19 02:19:18;;;;;;;17.17;2.60;;;14.80;99.90;;;;;;6150352;23;20028;-77
2022/06/19 02:21:51;;;;;;;15.60;2.58;;;14.80;99.90;;;;;;6147966;23;20057;-76
2022/06/19 02:24:24;;;;;;;14.02;2.35;;;14.70;99.90;;;;;;6149662;23;20017;-76
2022/06/19 02:26:50;;;;;;;18.70;2.60;;;14.80;99.90;;;;;;6145200;23;20522;-76
2022/06/19 02:29:18;;;;;;;14.63;2.70;;;14.70;99.90;;;;;;6148854;23;20021;-76
2022/06/19 02:31:50;;;;;;;20.60;3.13;;;14.80;99.90;;;;;;6145519;23;20021;-76
2022/06/19 02:34:25;;;;;;;;;;;14.80;99.90;;;;;;6150342;23;20068;-77
2022/06/19 02:37:02;;;;;;;19.95;2.63;;;14.70;99.90;;;;;;6146132;23;20019;-76
2022/06/19 02:39:43;;;;;;;14.07;3.67;;;14.70;99.90;;;;;;6150088;23;20494;-76
2022/06/19 02:42:20;;;;;;;17.10;3.00;;;14.70;99.90;;;;;;6146396;23;20021;-76
2022/06/19 02:44:55;;;;;;;17.15;2.72;;;14.70;99.90;;;;;;6149856;23;20013;-77
2022/06/19 02:47:23;;;;;;;17.70;2.85;;;14.70;99.90;;;;;;6145760;23;20021;-76
2022/06/19 02:49:48;;;;;;;13.93;2.50;;;14.70;99.90;;;;;;6149482;23;20014;-76
2022/06/19 02:52:18;;;;;;;16.30;2.80;;;14.70;99.90;;;;;;6147690;23;20080;-76
2022/06/19 02:54:43;;;;;;;13.45;2.10;;;14.70;99.90;;;;;;6149027;23;20068;-75
2022/06/19 02:57:12;;;;;;;13.55;3.20;;;14.70;99.90;;;;;;6148621;23;20017;-76
2022/06/19 02:59:38;;;;;;;17.05;3.35;;;14.70;99.90;;;;;;6147722;23;20455;-77
2022/06/19 03:02:04;;;;;;;12.82;2.42;;;14.80;99.90;;;;;;6150627;23;20029;-77
2022/06/19 03:04:39;;;;;;;10.68;1.77;;;14.80;99.90;;;;;;6147708;23;20021;-75
2022/06/19 03:07:08;;;;;;;21.33;2.60;;;14.70;99.90;;;;;;6148001;23;20571;-76
2022/06/19 03:09:34;;;;;;;16.13;2.55;;;14.70;99.90;;;;;;6147623;23;20029;-76
2022/06/19 03:11:59;;;;;;;19.42;2.65;;;14.70;99.90;;;;;;6146821;23;20049;-75
2022/06/19 03:14:25;;;;;;;19.15;2.95;;;14.70;99.90;;;;;;6148409;23;20119;-76
2022/06/19 03:16:51;;;;;;;14.77;2.97;;;14.70;99.90;;;;;;6149543;23;20049;-76
2022/06/19 03:19:17;;;;;;;15.70;2.67;;;14.70;99.90;;;;;;6149421;23;20048;-76
2022/06/19 03:21:43;;;;;;;17.55;2.80;;;14.70;99.90;;;;;;6149135;23;20109;-76
2022/06/19 03:24:10;;;;;;;13.98;2.58;;;14.70;99.90;;;;;;6147617;23;20029;-76
2022/06/19 03:26:36;;;;;;;13.77;3.10;;;14.70;99.90;;;;;;6146543;23;20029;-75
2022/06/19 03:29:05;;;;;;;11.45;2.10;;;14.70;99.90;;;;;;6147931;23;20099;-76
2022/06/19 03:31:31;;;;;;;17.52;2.70;;;14.80;99.90;;;;;;6149160;23;20026;-76
2022/06/19 03:33:57;;;;;;;21.10;3.50;;;14.70;99.90;;;;;;6149493;23;20017;-75
2022/06/19 03:36:24;;;;;;;15.48;3.53;;;14.70;99.90;;;;;;6148164;23;20060;-75
2022/06/19 03:38:53;;;;;;;13.68;2.83;;;14.80;99.90;;;;;;6147881;23;20406;-76
2022/06/19 03:41:18;;;;;;;11.95;2.38;;;14.80;99.90;;;;;;6148611;23;20013;-75
2022/06/19 03:43:44;;;;;;;12.20;2.10;;;14.80;99.90;;;;;;6150852;23;20009;-75
2022/06/19 03:46:13;;;;;;;13.30;2.50;;;14.80;99.90;;;;;;6151264;23;20017;-75
2022/06/19 03:48:41;;;;;;;16.58;2.38;;;14.80;99.90;;;;;;6151102;23;20060;-76
2022/06/19 03:51:07;;;;;;;18.95;2.60;;;14.80;99.90;;;;;;6150233;23;20442;-77
2022/06/19 03:53:32;;;;;;;19.90;2.90;;;14.80;99.90;;;;;;6150886;23;20017;-77
2022/06/19 03:55:58;;;;;;;29.60;3.75;;;14.70;99.90;;;;;;6152254;23;20029;-79
2022/06/19 03:58:45;;;;;;;17.67;3.88;;;14.70;99.90;;;;;;6151715;23;20025;-78
2022/06/19 04:01:37;;;;;;;18.08;2.65;;;14.70;99.90;;;;;;6151713;23;20017;-78
2022/06/19 04:04:06;;;;;;;16.75;3.28;;;14.70;99.90;;;;;;6149738;23;20013;-78
2022/06/19 04:06:40;;;;;;;18.48;3.70;;;14.60;99.90;;;;;;6149555;23;20087;-78
2022/06/19 04:09:17;;;;;;;15.30;2.97;;;14.50;99.90;;;;;;6149993;23;20335;-79
2022/06/19 04:11:44;;;;;;;17.25;2.58;;;14.50;99.90;;;;;;6151065;23;20018;-79
2022/06/19 04:14:13;;;;;;;18.75;2.90;;;14.40;99.90;;;;;;6150732;23;20468;-79
2022/06/19 04:16:40;;;;;;;9.50;2.63;;;14.40;99.90;;;;;;6149763;23;20417;-79
2022/06/19 04:19:07;;;;;;;14.05;2.45;;;14.30;99.90;;;;;;6151971;23;20045;-79
2022/06/19 04:21:39;;;;;;;17.70;2.65;;;14.40;99.90;;;;;;6147584;23;20044;-79
2022/06/19 04:24:05;;;;;;;17.63;3.15;;;14.40;99.90;;;;;;6148575;23;20458;-79
2022/06/19 04:26:33;;;;;;;25.42;3.38;;;14.30;99.90;;;;;;6150989;23;20303;-81
2022/06/19 04:29:02;;;;;;;24.52;4.68;;;14.30;99.90;;;;;;6151253;23;20055;-82
2022/06/19 04:31:32;;;;;;;21.05;3.40;;;14.20;99.90;;;;;;6149505;23;20434;-81
2022/06/19 04:33:57;;;;;;;12.18;2.95;;;14.30;99.90;;;;;;6149350;23;20013;-85
2022/06/19 04:36:28;;;;;;;18.48;2.70;;;14.20;99.90;;;;;;6149219;23;20026;-83
2022/06/19 04:38:56;;;;;;;20.63;2.72;;;14.00;99.90;;;;;;6150714;23;20021;-85
2022/06/19 04:41:31;;;;;;;13.18;3.10;;;13.90;99.90;;;;;;6151134;23;20028;-83
2022/06/19 04:43:58;;;;;;;14.07;3.17;;;13.90;99.90;;;;;;6148278;23;20018;-84
2022/06/19 04:46:25;;;;;;;14.98;2.75;;;13.80;99.90;;;;;;6151666;23;20022;-84
2022/06/19 04:48:51;;;;;;;10.25;2.17;;;13.70;99.90;;;;;;6148809;23;20032;-83
2022/06/19 04:51:20;;;;;;;13.20;2.10;;;13.70;99.90;;;;;;6150670;23;20068;-82
2022/06/19 04:53:46;;;;;;;15.80;2.55;;;13.70;99.90;;;;;;6150724;23;20018;-82
2022/06/19 04:56:13;;;;;;;11.93;2.08;;;13.60;99.90;;;;;;6150508;23;20054;-79
2022/06/19 04:58:39;;;;;;;7.47;2.05;;;13.40;99.90;;;;;;6147456;23;20358;-82
2022/06/19 05:01:12;;;;;;;11.45;1.70;;;13.40;99.90;;;;;;6149180;23;20014;-82
2022/06/19 05:03:38;;;;;;;9.05;1.85;;;13.30;99.90;;;;;;6149019;23;20021;-81
2022/06/19 05:06:04;;;;;;;10.88;2.10;;;13.20;99.90;;;;;;6149979;23;20067;-82
2022/06/19 05:08:31;;;;;;;11.60;2.10;;;13.10;99.90;;;;;;6147413;23;20060;-83
2022/06/19 05:10:56;;;;;;;12.27;1.83;;;13.10;99.90;;;;;;6152399;23;20014;-82
2022/06/19 05:13:22;;;;;;;9.40;1.92;;;13.00;99.90;;;;;;6150167;23;20458;-81
2022/06/19 05:16:00;;;;;;;8.88;1.85;;;13.00;99.90;;;;;;6149105;23;20025;-81
2022/06/19 05:18:26;;;;;;;10.45;1.92;;;12.90;99.90;;;;;;6150667;23;20451;-80
2022/06/19 05:21:01;;;;;;;13.50;2.00;;;12.90;99.90;;;;;;6150481;23;20104;-80
2022/06/19 05:23:38;;;;;;;12.18;2.33;;;12.90;99.90;;;;;;6149250;23;20064;-80
2022/06/19 05:26:07;;;;;;;10.93;1.67;;;13.00;99.90;;;;;;6151018;23;20087;-82
2022/06/19 05:28:34;;;;;;;16.75;2.40;;;12.90;99.90;;;;;;6148810;23;20148;-81
2022/06/19 05:31:00;;;;;;;18.88;2.30;;;13.00;99.90;;;;;;6151638;23;20084;-81
2022/06/19 05:33:27;;;;;;;12.57;2.20;;;12.90;99.90;;;;;;6148475;23;20387;-81
2022/06/19 05:35:53;;;;;;;13.00;2.28;;;13.00;99.90;;;;;;6149592;23;20057;-81
2022/06/19 05:38:20;;;;;;;14.43;1.95;;;12.90;99.90;;;;;;6147633;23;20031;-80
2022/06/19 05:40:48;;;;;;;15.10;3.50;;;12.90;99.90;;;;;;6147600;23;20454;-80
2022/06/19 05:43:14;;;;;;;9.07;2.35;;;12.90;99.90;;;;;;6148699;23;20021;-78
2022/06/19 05:45:39;;;;;;;9.55;1.65;;;12.90;99.90;;;;;;6149873;23;20721;-78
2022/06/19 05:48:08;;;;;;;17.25;2.60;;;12.90;99.90;;;;;;6149843;23;20025;-80
2022/06/19 05:50:34;;;;;;;14.98;2.63;;;12.90;99.90;;;;;;6151082;23;20032;-78
2022/06/19 05:52:59;;;;;;;13.23;2.20;;;12.90;99.90;;;;;;6148389;23;20096;-79
2022/06/19 05:55:25;;;;;;;16.35;2.58;;;12.90;99.90;;;;;;6148812;23;20028;-78
2022/06/19 05:57:50;;;;;;;14.43;2.42;;;13.00;99.90;;;;;;6150944;23;20171;-80
2022/06/19 06:00:17;;;;;;;16.92;2.45;;;13.10;99.90;;;;;;6151453;23;20021;-80
2022/06/19 06:02:43;;;;;;;18.02;1.98;;;12.90;99.90;;;;;;6150210;23;20072;-79
2022/06/19 06:05:10;;;;;;;17.25;2.20;;;12.90;99.90;;;;;;6150984;23;20026;-80
2022/06/19 06:07:35;;;;;;;18.83;2.72;;;12.90;99.90;;;;;;6149669;23;20272;-79
2022/06/19 06:10:01;;;;;;;16.60;2.25;;;12.90;99.90;;;;;;6150893;23;20100;-79
2022/06/19 06:12:27;;;;;;;17.98;2.80;;;12.90;99.90;;;;;;6147982;23;20025;-81
2022/06/19 06:14:53;;;;;;;15.10;2.38;;;12.90;99.90;;;;;;6150891;23;20017;-79
2022/06/19 06:17:23;;;;;;;11.90;2.35;;;12.90;99.90;;;;;;6150100;23;20017;-79
2022/06/19 06:19:49;;;;;;;12.25;1.83;;;13.00;99.90;;;;;;6148938;23;20207;-79
2022/06/19 06:22:14;;;;;;;12.80;2.55;;;12.90;99.90;;;;;;6145527;23;20329;-80
2022/06/19 06:24:40;;;;;;;16.00;2.22;;;13.00;99.90;;;;;;6150598;23;20591;-78
2022/06/19 06:27:06;;;;;;;14.00;2.50;;;13.00;99.90;;;;;;6150587;23;20072;-79
2022/06/19 06:29:34;;;;;;;15.45;2.45;;;13.00;99.90;;;;;;6149755;23;20422;-79
2022/06/19 06:31:59;;;;;;;17.20;2.38;;;13.00;99.90;;;;;;6148757;23;20101;-79
2022/06/19 06:34:25;;;;;;;13.40;1.77;;;13.00;99.90;;;;;;6149168;23;20060;-79
2022/06/19 06:36:51;;;;;;;16.63;2.53;;;13.10;99.90;;;;;;6145055;23;20022;-79
2022/06/19 06:39:16;;;;;;;12.88;2.53;;;13.10;99.90;;;;;;6148534;23;20025;-80
2022/06/19 06:41:42;;;;;;;14.02;2.30;;;13.20;99.90;;;;;;6149303;23;20017;-80
2022/06/19 06:44:12;;;;;;;19.17;2.70;;;13.20;99.90;;;;;;6148848;23;20084;-75
2022/06/19 06:46:38;;;;;;;12.67;2.23;;;13.30;99.90;;;;;;6146442;23;20018;-79
2022/06/19 06:49:04;;;;;;;22.02;2.50;;;13.40;99.90;;;;;;6150368;23;20100;-77
2022/06/19 06:51:31;;;;;;;18.70;2.85;;;13.40;99.90;;;;;;6146411;23;20017;-76
2022/06/19 06:53:58;;;;;;;12.68;1.90;;;13.40;99.90;;;;;;6151116;23;20448;-76
2022/06/19 06:56:24;;;;;;;13.02;2.22;;;13.60;99.90;;;;;;6148269;23;20100;-76
2022/06/19 06:58:50;;;;;;;11.10;2.17;;;13.60;99.90;;;;;;6148301;23;20025;-76
2022/06/19 07:01:20;;;;;;;13.85;2.10;;;13.60;99.90;;;;;;6148749;23;20040;-76
2022/06/19 07:03:49;;;;;;;12.05;2.15;;;13.60;99.90;;;;;;6150994;23;20021;-76
2022/06/19 07:06:15;;;;;;;11.50;1.80;;;13.70;99.90;;;;;;6148657;23;20072;-76
2022/06/19 07:08:41;;;;;;;13.77;2.08;;;13.80;99.90;;;;;;6146346;23;20511;-75
2022/06/19 07:11:14;;;;;;;14.77;2.38;;;13.80;99.90;;;;;;6151448;23;20013;-78
2022/06/19 07:13:39;;;;;;;11.48;1.98;;;13.80;99.90;;;;;;6150052;23;20492;-78
2022/06/19 07:16:05;;;;;;;19.33;2.47;;;14.00;99.90;;;;;;6151385;23;20017;-78
2022/06/19 07:18:31;;;;;;;14.95;2.22;;;13.80;99.90;;;;;;6147897;23;20017;-77
2022/06/19 07:20:56;;;;;;;10.90;1.83;;;13.90;99.90;;;;;;6147157;23;20020;-78
2022/06/19 07:23:22;;;;;;;6.78;1.40;;;13.90;99.90;;;;;;6148284;23;20021;-78
2022/06/19 07:25:47;;;;;;;10.93;1.92;;;13.90;99.90;;;;;;6148181;23;20017;-77
2022/06/19 07:28:15;;;;;;;13.25;2.25;;;14.00;99.90;;;;;;6148646;23;20049;-77
2022/06/19 07:30:45;;;;;;;12.68;2.15;;;14.00;99.90;;;;;;6148170;23;20108;-78
2022/06/19 07:33:11;;;;;;;13.85;2.83;;;14.10;99.90;;;;;;6149577;23;20136;-77
2022/06/19 07:35:36;;;;;;;14.57;2.33;;;14.20;99.90;;;;;;6147829;23;20024;-77
2022/06/19 07:38:02;;;;;;;9.70;2.33;;;14.10;99.90;;;;;;6146194;23;20026;-77
2022/06/19 07:40:28;;;;;;;11.20;1.88;;;14.10;99.90;;;;;;6146472;23;20350;-77
2022/06/19 07:42:53;;;;;;;16.48;2.10;;;14.20;99.90;;;;;;6149381;23;20044;-77
2022/06/19 07:45:19;;;;;;;14.65;3.75;;;14.20;99.90;;;;;;6148357;23;20680;-77
2022/06/19 07:50:29;;;;;;;11.68;2.17;;;14.30;99.90;;;;;;6148235;23;20299;-74
2022/06/19 07:52:55;;;;;;;13.23;2.00;;;14.20;99.90;;;;;;6147603;23;20029;-76
2022/06/19 07:55:26;;;;;;;12.45;2.10;;;14.30;99.90;;;;;;6149206;23;20028;-76
2022/06/19 07:57:53;;;;;;;18.58;2.22;;;14.30;99.90;;;;;;6149914;23;20010;-75
2022/06/19 08:00:25;;;;;;;13.80;2.25;;;14.40;99.90;;;;;;6148743;23;20292;-74
2022/06/19 08:02:55;;;;;;;13.25;2.53;;;14.30;99.90;;;;;;6148014;23;20049;-74
2022/06/19 08:05:23;;;;;;;16.00;2.55;;;14.40;99.90;;;;;;6147425;23;20505;-75
2022/06/19 08:07:50;;;;;;;15.65;2.30;;;14.40;99.90;;;;;;6145414;23;20428;-75
2022/06/19 08:10:24;;;;;;;17.17;2.05;;;14.40;99.90;;;;;;6150454;23;20029;-75
2022/06/19 08:12:53;;;;;;;11.20;2.13;;;14.40;99.90;;;;;;6148398;23;20051;-75
2022/06/19 08:15:19;;;;;;;8.20;2.22;;;14.40;99.90;;;;;;6146594;23;20105;-75
2022/06/19 08:17:45;;;;;;;20.23;1.73;;;14.50;99.90;;;;;;6149782;23;20014;-76
2022/06/19 08:20:12;;;;;;;11.73;2.33;;;14.50;99.90;;;;;;6147986;23;20430;-75
2022/06/19 08:22:39;;;;;;;17.45;2.67;;;14.50;99.90;;;;;;6145317;23;20083;-75
2022/06/19 08:25:06;;;;;;;14.25;1.90;;;14.50;99.90;;;;;;6147850;23;20092;-75
2022/06/19 08:27:34;;;;;;;10.63;1.88;;;14.40;99.90;;;;;;6150008;23;20010;-74
2022/06/19 08:30:00;;;;;;;11.63;1.70;;;14.50;99.90;;;;;;6148760;23;20013;-75
2022/06/19 08:32:25;;;;;;;13.13;2.00;;;14.50;99.90;;;;;;6148885;23;20434;-75
2022/06/19 08:34:51;;;;;;;11.35;2.15;;;14.50;99.90;;;;;;6149991;23;20021;-75
2022/06/19 08:37:16;;;;;;;11.50;1.80;;;14.50;99.90;;;;;;6149209;23;20096;-75
2022/06/19 08:39:46;;;;;;;10.50;2.00;;;14.60;99.90;;;;;;6149300;23;20439;-75
2022/06/19 08:42:11;;;;;;;7.78;1.65;;;14.60;99.90;;;;;;6150803;23;20048;-75
2022/06/19 08:45:10;;;;;;;12.55;2.30;;;14.60;99.90;;;;;;6150652;23;20028;-75
2022/06/19 08:47:54;;;;;;;13.35;2.33;;;14.60;99.90;;;;;;6151163;23;20025;-75
2022/06/19 08:50:44;;;;;;;7.25;1.33;;;14.60;99.90;;;;;;6148122;23;20032;-75
2022/06/19 08:53:20;;;;;;;9.53;1.77;;;14.60;99.90;;;;;;6150931;23;20084;-74
2022/06/19 08:55:52;;;;;;;11.05;1.77;;;14.60;99.90;;;;;;6152255;23;20296;-75
2022/06/19 08:58:36;;;;;;;;;;;14.70;99.90;;;;;;6150649;23;20021;-75
2022/06/19 09:01:23;;;;;;;9.50;1.50;;;14.70;99.90;;;;;;6149360;23;20400;-75
2022/06/19 09:07:24;;;;;;;12.05;2.10;;;14.70;99.90;;;;;;6147283;23;20029;-75
2022/06/19 09:10:11;;;;;;;10.73;1.95;;;14.70;99.90;;;;;;6148871;23;20084;-75
2022/06/19 09:12:54;;;;;;;6.97;1.23;;;14.70;99.90;;;;;;6148053;23;20022;-75
2022/06/19 09:15:27;;;;;;;14.27;1.67;;;14.70;99.90;;;;;;6150893;23;20014;-75
2022/06/19 09:18:06;;;;;;;8.93;1.50;;;14.80;99.90;;;;;;6148821;23;20032;-75
2022/06/19 09:20:58;;;;;;;8.00;1.75;;;14.80;99.90;;;;;;6151604;23;20032;-75
2022/06/19 09:23:46;;;;;;;7.43;1.27;;;14.80;99.90;;;;;;6150194;23;20060;-76
2022/06/19 09:26:33;;;;;;;3.80;1.20;;;14.80;99.90;;;;;;6148957;23;20013;-75
2022/06/19 09:29:09;;;;;;;7.65;1.50;;;14.80;99.90;;;;;;6149698;23;20018;-76
2022/06/19 09:31:48;;;;;;;7.40;1.30;;;14.80;99.90;;;;;;6151191;23;20052;-76
2022/06/19 09:34:18;;;;;;;5.95;1.42;;;14.70;99.90;;;;;;6150847;23;20065;-75
2022/06/19 09:36:48;;;;;;;11.30;1.45;;;14.90;99.90;;;;;;6147950;23;20091;-75
2022/06/19 09:39:19;;;;;;;5.55;1.65;;;14.80;99.90;;;;;;6149282;23;20021;-75
2022/06/19 09:41:58;;;;;;;7.25;1.60;;;14.90;99.90;;;;;;6152672;23;20427;-76
2022/06/19 09:44:33;;;;;;;5.85;1.08;;;14.90;99.90;;;;;;6151493;23;20054;-76
2022/06/19 09:47:12;;;;;;;7.57;1.00;;;14.90;99.90;;;;;;6150788;23;20025;-75
2022/06/19 09:49:59;;;;;;;6.38;1.17;;;14.90;99.90;;;;;;6151431;23;20120;-76
2022/06/19 09:52:52;;;;;;;6.35;1.30;;;14.90;99.90;;;;;;6147777;23;20021;-76
2022/06/19 09:55:26;;;;;;;6.20;1.30;;;15.00;99.90;;;;;;6131600;23;20025;-75
2022/06/19 09:58:06;;;;;;;6.03;1.20;;;15.00;99.90;;;;;;6149492;23;20056;-75
2022/06/19 10:00:40;;;;;;;6.00;1.15;;;15.00;99.90;;;;;;6150046;23;20013;-74
2022/06/19 10:03:19;;;;;;;9.13;1.15;;;15.10;99.90;;;;;;6151730;23;20017;-75
2022/06/19 10:06:33;;;;;;;9.02;1.63;;;15.10;99.90;;;;;;6149505;23;20020;-75
2022/06/19 10:09:19;;;;;;;6.03;0.93;;;15.20;99.90;;;;;;6006327;23;20051;-74
2022/06/19 10:11:46;;;;;;;6.57;1.60;;;15.20;99.90;;;;;;6030349;23;20015;-74
2022/06/19 10:14:22;;;;;;;6.53;1.30;;;15.20;99.90;;;;;;6111461;23;20018;-75
2022/06/19 10:17:02;;;;;;;5.75;0.85;;;15.30;99.90;;;;;;6149102;23;20088;-74
2022/06/19 10:19:45;;;;;;;4.45;1.00;;;15.30;99.90;;;;;;6151417;23;20021;-74
2022/06/19 10:22:48;;;;;;;4.40;1.00;;;15.30;99.90;;;;;;6145829;23;20510;-74
2022/06/19 10:25:48;;;;;;;3.05;1.10;;;15.40;99.90;;;;;;6151605;23;20018;-74
2022/06/19 10:28:22;;;;;;;6.75;1.15;;;15.50;99.90;;;;;;6147955;23;20188;-74
2022/06/19 10:31:22;;;;;;;4.32;1.30;;;15.60;99.90;;;;;;6148854;23;20018;-74
2022/06/19 10:34:04;;;;;;;3.88;1.10;;;15.60;99.90;;;;;;6149226;23;20064;-75
2022/06/19 10:37:00;;;;;;;4.80;1.02;;;15.60;99.90;;;;;;6149061;23;20030;-74
2022/06/19 10:39:37;;;;;;;3.92;0.88;;;15.70;99.90;;;;;;6149894;23;20021;-74
2022/06/19 10:42:28;;;;;;;3.50;0.70;;;15.70;99.90;;;;;;6148558;23;20454;-74
2022/06/19 10:45:09;;;;;;;3.60;0.98;;;15.70;99.90;;;;;;6150779;23;20072;-75
2022/06/19 10:47:44;;;;;;;3.20;0.85;;;15.80;99.90;;;;;;6149612;23;20379;-74
2022/06/19 10:50:26;;;;;;;2.28;0.60;;;15.80;99.90;;;;;;6149667;23;20022;-75
2022/06/19 10:53:13;;;;;;;4.80;0.60;;;15.90;99.90;;;;;;6149438;23;20013;-74
2022/06/19 10:56:08;;;;;;;2.75;0.60;;;15.90;99.90;;;;;;6148751;23;20088;-74
2022/06/19 10:58:35;;;;;;;3.67;0.60;;;15.80;99.90;;;;;;6149965;23;20022;-73
2022/06/19 11:01:07;;;;;;;2.95;0.80;;;15.80;99.90;;;;;;6150769;23;20041;-74
2022/06/19 11:04:07;;;;;;;2.50;0.75;;;15.80;99.90;;;;;;6146913;23;20387;-74
2022/06/19 11:06:33;;;;;;;2.55;0.57;;;15.90;99.90;;;;;;6147201;23;20139;-75
2022/06/19 11:09:07;;;;;;;4.97;0.80;;;15.90;99.90;;;;;;6148855;23;20207;-73
2022/06/19 11:11:35;;;;;;;4.15;0.98;;;15.80;99.90;;;;;;6149564;23;20338;-75
2022/06/19 11:14:12;;;;;;;4.50;1.08;;;15.80;99.90;;;;;;6148924;23;20014;-75
2022/06/19 11:17:15;;;;;;;4.03;0.82;;;15.80;99.90;;;;;;6149934;23;20631;-74
2022/06/19 11:19:42;;;;;;;2.97;1.05;;;15.70;99.90;;;;;;6087684;23;20088;-74
2022/06/19 11:22:30;;;;;;;3.45;0.90;;;15.70;99.90;;;;;;6146722;23;20101;-74
2022/06/19 11:24:58;;;;;;;4.10;0.90;;;15.70;99.90;;;;;;6131313;23;20045;-74
2022/06/19 11:27:26;;;;;;;6.32;0.90;;;15.70;99.90;;;;;;6148366;23;20017;-73
2022/06/19 11:29:59;;;;;;;3.83;0.90;;;15.60;99.90;;;;;;6151043;23;20067;-74
2022/06/19 11:32:28;;;;;;;6.70;1.17;;;15.60;99.90;;;;;;6147116;23;20021;-74
2022/06/19 11:35:04;;;;;;;2.53;0.73;;;15.50;99.90;;;;;;6148366;23;20093;-73
2022/06/19 11:37:57;;;;;;;4.75;0.68;;;15.50;99.90;;;;;;6148492;23;20137;-74
2022/06/19 11:40:33;;;;;;;10.48;1.35;;;15.40;99.90;;;;;;6148763;23;20096;-74
2022/06/19 11:43:01;;;;;;;6.75;1.50;;;15.40;99.90;;;;;;6150678;23;20342;-74
2022/06/19 11:45:35;;;;;;;6.32;1.00;;;15.30;99.90;;;;;;6149407;23;20079;-75
2022/06/19 11:48:07;;;;;;;9.18;1.70;;;15.30;99.90;;;;;;6146896;23;20049;-74
2022/06/19 11:50:32;;;;;;;6.45;1.80;;;15.30;99.90;;;;;;6150509;23;20017;-73
2022/06/19 11:53:01;;;;;;;9.73;1.98;;;15.20;99.90;;;;;;6147810;23;20442;-73
2022/06/19 11:55:44;;;;;;;7.47;1.95;;;15.30;99.90;;;;;;6150397;23;20029;-74
2022/06/19 11:58:15;;;;;;;4.75;1.20;;;15.20;99.90;;;;;;6150780;23;20079;-74
2022/06/19 12:00:43;;;;;;;6.95;1.63;;;15.10;99.90;;;;;;6147681;23;20018;-74
2022/06/19 12:03:25;;;;;;;5.45;1.55;;;15.20;99.90;;;;;;6147678;23;20025;-73
2022/06/19 12:05:57;;;;;;;6.80;1.15;;;15.20;99.90;;;;;;6151085;23;20013;-73
2022/06/19 12:08:32;;;;;;;10.80;1.60;;;15.00;99.90;;;;;;6150232;23;20307;-73
2022/06/19 12:11:02;;;;;;;8.70;1.80;;;15.20;99.90;;;;;;6150555;23;20024;-73
2022/06/19 12:13:33;;;;;;;6.60;1.60;;;15.20;99.90;;;;;;6150408;23;20072;-73
2022/06/19 12:16:21;;;;;;;12.68;1.58;;;15.30;99.90;;;;;;6150800;23;20017;-73
2022/06/19 12:18:48;;;;;;;5.72;1.63;;;15.30;99.90;;;;;;6149601;23;20029;-74
2022/06/19 12:21:19;;;;;;;6.85;1.40;;;15.30;99.90;;;;;;6150594;23;20009;-74
2022/06/19 12:24:05;;;;;;;13.98;2.00;;;15.30;99.90;;;;;;6150561;23;20021;-72
2022/06/19 12:26:38;;;;;;;5.35;1.20;;;15.30;99.90;;;;;;6148493;23;20017;-73
2022/06/19 12:29:25;;;;;;;6.53;1.30;;;15.20;99.90;;;;;;6148335;23;20044;-73
2022/06/19 12:31:53;;;;;;;6.32;1.38;;;15.40;99.90;;;;;;6149707;23;20021;-74
2022/06/19 12:34:40;;;;;;;6.03;1.38;;;15.50;99.90;;;;;;6148534;23;20350;-74
2022/06/19 12:37:23;;;;;;;10.52;2.17;;;15.70;99.90;;;;;;6144318;23;20331;-75
2022/06/19 12:39:50;;;;;;;9.55;1.50;;;15.80;99.90;;;;;;6144780;23;20033;-74
2022/06/19 12:42:18;;;;;;;6.07;1.30;;;15.90;99.90;;;;;;6150289;23;20100;-75
2022/06/19 12:45:05;;;;;;;10.38;1.90;;;16.00;99.90;;;;;;6146697;23;20044;-74
2022/06/19 12:48:03;;;;;;;8.32;2.35;;;16.10;99.90;;;;;;6149254;23;20049;-73
2022/06/19 12:51:04;;;;;;;7.40;1.52;;;16.20;99.90;;;;;;6148681;23;20450;-74
2022/06/19 12:54:02;;;;;;;8.73;1.25;;;16.30;99.90;;;;;;6149703;23;20078;-74
2022/06/19 12:56:55;;;;;;;7.75;1.42;;;16.50;99.90;;;;;;6083830;23;20024;-75
2022/06/19 12:59:42;;;;;;;8.90;1.48;;;16.70;99.90;;;;;;6148194;23;20100;-75
2022/06/19 13:02:24;;;;;;;8.48;1.40;;;16.90;99.90;;;;;;6147543;23;20469;-74
2022/06/19 13:04:59;;;;;;;8.48;1.88;;;17.00;99.90;;;;;;6148303;23;20361;-74
2022/06/19 13:07:49;;;;;;;11.45;1.77;;;17.00;99.90;;;;;;6147748;23;20043;-74
2022/06/19 13:10:39;;;;;;;9.02;1.58;;;17.00;99.90;;;;;;6149599;23;20881;-74